sensor_id;sensor_type;location;lat;lon;timestamp;P1;durP1;ratioP1;P2;durP2;ratioP2
46675;SDS011;32412;51.478;5.694;2024-02-21T00:00:37;28.20;;;7.07;;
46675;SDS011;32412;51.478;5.694;2024-02-21T00:03:04;22.88;;;6.95;;
46675;SDS011;32412;51.478;5.694;2024-02-21T00:05:30;22.67;;;7.00;;
46675;SDS011;32412;51.478;5.694;2024-02-21T00:07:55;22.40;;;6.53;;
46675;SDS011;32412;51.478;5.694;2024-02-21T00:10:24;23.83;;;7.35;;
46675;SDS011;32412;51.478;5.694;2024-02-21T00:12:50;22.05;;;7.05;;
46675;SDS011;32412;51.478;5.694;2024-02-21T00:15:15;20.55;;;7.25;;
46675;SDS011;32412;51.478;5.694;2024-02-21T00:17:42;20.92;;;6.82;;
46675;SDS011;32412;51.478;5.694;2024-02-21T00:20:11;26.85;;;7.80;;
46675;SDS011;32412;51.478;5.694;2024-02-21T00:22:36;17.23;;;7.95;;
46675;SDS011;32412;51.478;5.694;2024-02-21T00:25:02;30.33;;;8.60;;
46675;SDS011;32412;51.478;5.694;2024-02-21T00:27:28;20.67;;;6.32;;
46675;SDS011;32412;51.478;5.694;2024-02-21T00:29:54;25.60;;;6.72;;
46675;SDS011;32412;51.478;5.694;2024-02-21T00:32:20;26.20;;;8.10;;
46675;SDS011;32412;51.478;5.694;2024-02-21T00:34:45;21.88;;;6.95;;
46675;SDS011;32412;51.478;5.694;2024-02-21T00:37:11;21.30;;;6.70;;
46675;SDS011;32412;51.478;5.694;2024-02-21T00:39:37;18.83;;;7.13;;
46675;SDS011;32412;51.478;5.694;2024-02-21T00:42:03;18.02;;;7.07;;
46675;SDS011;32412;51.478;5.694;2024-02-21T00:44:29;18.20;;;6.55;;
46675;SDS011;32412;51.478;5.694;2024-02-21T00:46:54;18.70;;;6.80;;
46675;SDS011;32412;51.478;5.694;2024-02-21T00:49:20;17.25;;;6.30;;
46675;SDS011;32412;51.478;5.694;2024-02-21T00:51:46;23.20;;;6.50;;
46675;SDS011;32412;51.478;5.694;2024-02-21T00:54:12;23.50;;;6.95;;
46675;SDS011;32412;51.478;5.694;2024-02-21T00:56:38;20.60;;;6.22;;
46675;SDS011;32412;51.478;5.694;2024-02-21T00:59:03;17.92;;;6.28;;
46675;SDS011;32412;51.478;5.694;2024-02-21T01:01:29;21.58;;;7.47;;
46675;SDS011;32412;51.478;5.694;2024-02-21T01:03:55;21.48;;;6.82;;
46675;SDS011;32412;51.478;5.694;2024-02-21T01:06:20;23.55;;;7.32;;
46675;SDS011;32412;51.478;5.694;2024-02-21T01:08:49;19.02;;;6.22;;
46675;SDS011;32412;51.478;5.694;2024-02-21T01:11:15;19.05;;;6.90;;
46675;SDS011;32412;51.478;5.694;2024-02-21T01:13:41;22.65;;;6.20;;
46675;SDS011;32412;51.478;5.694;2024-02-21T01:16:07;17.58;;;6.53;;
46675;SDS011;32412;51.478;5.694;2024-02-21T01:18:41;16.38;;;6.95;;
46675;SDS011;32412;51.478;5.694;2024-02-21T01:21:07;20.02;;;6.25;;
46675;SDS011;32412;51.478;5.694;2024-02-21T01:23:36;16.83;;;6.47;;
46675;SDS011;32412;51.478;5.694;2024-02-21T01:26:02;19.98;;;6.10;;
46675;SDS011;32412;51.478;5.694;2024-02-21T01:28:29;15.25;;;5.78;;
46675;SDS011;32412;51.478;5.694;2024-02-21T01:30:55;15.65;;;6.30;;
46675;SDS011;32412;51.478;5.694;2024-02-21T01:33:22;14.38;;;5.30;;
46675;SDS011;32412;51.478;5.694;2024-02-21T01:35:48;15.27;;;6.07;;
46675;SDS011;32412;51.478;5.694;2024-02-21T01:38:15;18.63;;;6.25;;
46675;SDS011;32412;51.478;5.694;2024-02-21T01:40:40;20.77;;;6.13;;
46675;SDS011;32412;51.478;5.694;2024-02-21T01:43:16;18.85;;;6.07;;
46675;SDS011;32412;51.478;5.694;2024-02-21T01:45:45;19.20;;;5.47;;
46675;SDS011;32412;51.478;5.694;2024-02-21T01:48:14;16.98;;;6.47;;
46675;SDS011;32412;51.478;5.694;2024-02-21T01:50:41;16.48;;;5.80;;
46675;SDS011;32412;51.478;5.694;2024-02-21T01:53:06;14.88;;;6.03;;
46675;SDS011;32412;51.478;5.694;2024-02-21T01:55:33;15.20;;;6.60;;
46675;SDS011;32412;51.478;5.694;2024-02-21T01:57:59;16.02;;;6.43;;
46675;SDS011;32412;51.478;5.694;2024-02-21T02:00:25;12.93;;;5.68;;
46675;SDS011;32412;51.478;5.694;2024-02-21T02:02:51;15.40;;;5.70;;
46675;SDS011;32412;51.478;5.694;2024-02-21T02:05:17;16.55;;;6.57;;
46675;SDS011;32412;51.478;5.694;2024-02-21T02:07:46;15.18;;;5.60;;
46675;SDS011;32412;51.478;5.694;2024-02-21T02:10:11;14.52;;;5.68;;
46675;SDS011;32412;51.478;5.694;2024-02-21T02:12:37;13.13;;;6.05;;
46675;SDS011;32412;51.478;5.694;2024-02-21T02:15:03;14.80;;;6.10;;
46675;SDS011;32412;51.478;5.694;2024-02-21T02:17:29;16.80;;;5.90;;
46675;SDS011;32412;51.478;5.694;2024-02-21T02:19:55;10.40;;;5.50;;
46675;SDS011;32412;51.478;5.694;2024-02-21T02:22:30;14.48;;;5.50;;
46675;SDS011;32412;51.478;5.694;2024-02-21T02:24:58;12.80;;;5.97;;
46675;SDS011;32412;51.478;5.694;2024-02-21T02:27:24;13.18;;;5.57;;
46675;SDS011;32412;51.478;5.694;2024-02-21T02:29:49;15.18;;;5.82;;
46675;SDS011;32412;51.478;5.694;2024-02-21T02:32:15;19.13;;;5.10;;
46675;SDS011;32412;51.478;5.694;2024-02-21T02:34:41;11.88;;;4.45;;
46675;SDS011;32412;51.478;5.694;2024-02-21T02:37:07;15.07;;;4.90;;
46675;SDS011;32412;51.478;5.694;2024-02-21T02:39:32;15.80;;;4.63;;
46675;SDS011;32412;51.478;5.694;2024-02-21T02:41:58;11.00;;;5.07;;
46675;SDS011;32412;51.478;5.694;2024-02-21T02:44:24;10.27;;;4.57;;
46675;SDS011;32412;51.478;5.694;2024-02-21T02:46:49;13.32;;;4.60;;
46675;SDS011;32412;51.478;5.694;2024-02-21T02:49:15;13.52;;;4.93;;
46675;SDS011;32412;51.478;5.694;2024-02-21T02:51:41;16.35;;;5.22;;
46675;SDS011;32412;51.478;5.694;2024-02-21T02:54:08;16.00;;;5.75;;
46675;SDS011;32412;51.478;5.694;2024-02-21T02:56:34;11.38;;;4.63;;
46675;SDS011;32412;51.478;5.694;2024-02-21T02:58:59;12.52;;;5.28;;
46675;SDS011;32412;51.478;5.694;2024-02-21T03:01:25;17.88;;;4.68;;
46675;SDS011;32412;51.478;5.694;2024-02-21T03:03:51;14.48;;;5.18;;
46675;SDS011;32412;51.478;5.694;2024-02-21T03:06:17;22.77;;;5.07;;
46675;SDS011;32412;51.478;5.694;2024-02-21T03:08:42;13.57;;;5.28;;
46675;SDS011;32412;51.478;5.694;2024-02-21T03:11:08;13.60;;;4.13;;
46675;SDS011;32412;51.478;5.694;2024-02-21T03:13:33;16.13;;;5.25;;
46675;SDS011;32412;51.478;5.694;2024-02-21T03:15:59;10.57;;;4.85;;
46675;SDS011;32412;51.478;5.694;2024-02-21T03:18:25;13.32;;;4.45;;
46675;SDS011;32412;51.478;5.694;2024-02-21T03:20:50;10.85;;;4.45;;
46675;SDS011;32412;51.478;5.694;2024-02-21T03:23:16;15.85;;;4.93;;
46675;SDS011;32412;51.478;5.694;2024-02-21T03:25:41;11.60;;;5.22;;
46675;SDS011;32412;51.478;5.694;2024-02-21T03:28:07;13.60;;;4.80;;
46675;SDS011;32412;51.478;5.694;2024-02-21T03:30:33;13.07;;;4.93;;
46675;SDS011;32412;51.478;5.694;2024-02-21T03:32:59;12.00;;;4.70;;
46675;SDS011;32412;51.478;5.694;2024-02-21T03:35:26;14.32;;;5.40;;
46675;SDS011;32412;51.478;5.694;2024-02-21T03:37:52;12.15;;;5.53;;
46675;SDS011;32412;51.478;5.694;2024-02-21T03:40:18;13.55;;;5.20;;
46675;SDS011;32412;51.478;5.694;2024-02-21T03:42:44;16.20;;;5.50;;
46675;SDS011;32412;51.478;5.694;2024-02-21T03:45:09;15.95;;;5.57;;
46675;SDS011;32412;51.478;5.694;2024-02-21T03:47:35;14.82;;;5.60;;
46675;SDS011;32412;51.478;5.694;2024-02-21T03:50:01;15.77;;;5.88;;
46675;SDS011;32412;51.478;5.694;2024-02-21T03:52:26;14.43;;;6.22;;
46675;SDS011;32412;51.478;5.694;2024-02-21T03:54:52;22.38;;;8.20;;
46675;SDS011;32412;51.478;5.694;2024-02-21T03:57:19;21.33;;;7.03;;
46675;SDS011;32412;51.478;5.694;2024-02-21T03:59:46;15.15;;;6.65;;
46675;SDS011;32412;51.478;5.694;2024-02-21T04:02:11;16.92;;;6.85;;
46675;SDS011;32412;51.478;5.694;2024-02-21T04:04:37;16.77;;;6.60;;
46675;SDS011;32412;51.478;5.694;2024-02-21T04:07:03;19.58;;;8.00;;
46675;SDS011;32412;51.478;5.694;2024-02-21T04:09:33;17.50;;;7.38;;
46675;SDS011;32412;51.478;5.694;2024-02-21T04:11:59;16.55;;;7.30;;
46675;SDS011;32412;51.478;5.694;2024-02-21T04:14:25;18.05;;;7.55;;
46675;SDS011;32412;51.478;5.694;2024-02-21T04:16:51;18.17;;;7.47;;
46675;SDS011;32412;51.478;5.694;2024-02-21T04:19:17;17.25;;;7.18;;
46675;SDS011;32412;51.478;5.694;2024-02-21T04:21:42;19.90;;;7.38;;
46675;SDS011;32412;51.478;5.694;2024-02-21T04:24:08;19.23;;;6.90;;
46675;SDS011;32412;51.478;5.694;2024-02-21T04:26:34;17.95;;;7.32;;
46675;SDS011;32412;51.478;5.694;2024-02-21T04:28:59;15.60;;;7.32;;
46675;SDS011;32412;51.478;5.694;2024-02-21T04:31:25;23.73;;;7.53;;
46675;SDS011;32412;51.478;5.694;2024-02-21T04:33:51;17.08;;;7.13;;
46675;SDS011;32412;51.478;5.694;2024-02-21T04:36:17;14.88;;;7.45;;
46675;SDS011;32412;51.478;5.694;2024-02-21T04:38:42;19.08;;;7.28;;
46675;SDS011;32412;51.478;5.694;2024-02-21T04:41:08;21.67;;;7.20;;
46675;SDS011;32412;51.478;5.694;2024-02-21T04:43:34;14.63;;;7.25;;
46675;SDS011;32412;51.478;5.694;2024-02-21T04:46:00;19.58;;;7.53;;
46675;SDS011;32412;51.478;5.694;2024-02-21T04:48:25;16.35;;;6.90;;
46675;SDS011;32412;51.478;5.694;2024-02-21T04:50:51;15.60;;;7.32;;
46675;SDS011;32412;51.478;5.694;2024-02-21T04:53:17;16.80;;;7.25;;
46675;SDS011;32412;51.478;5.694;2024-02-21T04:55:43;21.67;;;7.65;;
46675;SDS011;32412;51.478;5.694;2024-02-21T04:58:09;19.40;;;7.70;;
46675;SDS011;32412;51.478;5.694;2024-02-21T05:00:35;16.60;;;6.65;;
46675;SDS011;32412;51.478;5.694;2024-02-21T05:03:00;20.25;;;7.57;;
46675;SDS011;32412;51.478;5.694;2024-02-21T05:05:26;22.48;;;7.72;;
46675;SDS011;32412;51.478;5.694;2024-02-21T05:07:52;21.65;;;7.70;;
46675;SDS011;32412;51.478;5.694;2024-02-21T05:10:17;24.20;;;8.52;;
46675;SDS011;32412;51.478;5.694;2024-02-21T05:12:44;17.10;;;7.97;;
46675;SDS011;32412;51.478;5.694;2024-02-21T05:15:10;17.30;;;8.63;;
46675;SDS011;32412;51.478;5.694;2024-02-21T05:17:35;18.60;;;8.52;;
46675;SDS011;32412;51.478;5.694;2024-02-21T05:20:01;20.00;;;7.72;;
46675;SDS011;32412;51.478;5.694;2024-02-21T05:22:27;23.23;;;8.45;;
46675;SDS011;32412;51.478;5.694;2024-02-21T05:24:53;16.80;;;8.07;;
46675;SDS011;32412;51.478;5.694;2024-02-21T05:27:18;20.60;;;8.63;;
46675;SDS011;32412;51.478;5.694;2024-02-21T05:29:44;21.30;;;8.25;;
46675;SDS011;32412;51.478;5.694;2024-02-21T05:32:10;22.60;;;8.65;;
46675;SDS011;32412;51.478;5.694;2024-02-21T05:34:35;17.98;;;7.72;;
46675;SDS011;32412;51.478;5.694;2024-02-21T05:37:01;18.75;;;7.20;;
46675;SDS011;32412;51.478;5.694;2024-02-21T05:39:27;21.27;;;7.60;;
46675;SDS011;32412;51.478;5.694;2024-02-21T05:41:54;19.20;;;7.97;;
46675;SDS011;32412;51.478;5.694;2024-02-21T05:44:20;27.58;;;8.30;;
46675;SDS011;32412;51.478;5.694;2024-02-21T05:46:47;23.60;;;7.95;;
46675;SDS011;32412;51.478;5.694;2024-02-21T05:49:13;16.33;;;7.68;;
46675;SDS011;32412;51.478;5.694;2024-02-21T05:51:39;22.90;;;8.05;;
46675;SDS011;32412;51.478;5.694;2024-02-21T05:54:05;18.02;;;6.82;;
46675;SDS011;32412;51.478;5.694;2024-02-21T05:56:34;15.30;;;6.60;;
46675;SDS011;32412;51.478;5.694;2024-02-21T05:59:00;18.98;;;7.35;;
46675;SDS011;32412;51.478;5.694;2024-02-21T06:01:26;17.40;;;6.82;;
46675;SDS011;32412;51.478;5.694;2024-02-21T06:03:52;25.58;;;8.25;;
46675;SDS011;32412;51.478;5.694;2024-02-21T06:06:19;16.42;;;6.70;;
46675;SDS011;32412;51.478;5.694;2024-02-21T06:08:46;19.42;;;7.60;;
46675;SDS011;32412;51.478;5.694;2024-02-21T06:11:12;16.85;;;6.72;;
46675;SDS011;32412;51.478;5.694;2024-02-21T06:13:40;14.43;;;6.40;;
46675;SDS011;32412;51.478;5.694;2024-02-21T06:16:06;20.55;;;7.07;;
46675;SDS011;32412;51.478;5.694;2024-02-21T06:18:34;14.80;;;6.88;;
46675;SDS011;32412;51.478;5.694;2024-02-21T06:21:01;18.20;;;6.60;;
46675;SDS011;32412;51.478;5.694;2024-02-21T06:23:27;17.38;;;7.75;;
46675;SDS011;32412;51.478;5.694;2024-02-21T06:25:53;15.88;;;7.85;;
46675;SDS011;32412;51.478;5.694;2024-02-21T06:28:18;19.85;;;7.72;;
46675;SDS011;32412;51.478;5.694;2024-02-21T06:30:45;14.95;;;6.40;;
46675;SDS011;32412;51.478;5.694;2024-02-21T06:33:11;15.82;;;6.95;;
46675;SDS011;32412;51.478;5.694;2024-02-21T06:35:36;20.52;;;7.38;;
46675;SDS011;32412;51.478;5.694;2024-02-21T06:38:06;13.95;;;7.03;;
46675;SDS011;32412;51.478;5.694;2024-02-21T06:40:32;17.38;;;7.43;;
46675;SDS011;32412;51.478;5.694;2024-02-21T06:43:03;17.92;;;7.45;;
46675;SDS011;32412;51.478;5.694;2024-02-21T06:45:29;19.70;;;7.20;;
46675;SDS011;32412;51.478;5.694;2024-02-21T06:47:55;18.10;;;7.63;;
46675;SDS011;32412;51.478;5.694;2024-02-21T06:50:21;22.05;;;8.77;;
46675;SDS011;32412;51.478;5.694;2024-02-21T06:52:46;24.33;;;7.47;;
46675;SDS011;32412;51.478;5.694;2024-02-21T06:55:12;20.98;;;8.52;;
46675;SDS011;32412;51.478;5.694;2024-02-21T06:57:38;21.85;;;8.45;;
46675;SDS011;32412;51.478;5.694;2024-02-21T07:00:03;17.60;;;7.95;;
46675;SDS011;32412;51.478;5.694;2024-02-21T07:02:33;22.40;;;8.57;;
46675;SDS011;32412;51.478;5.694;2024-02-21T07:04:59;21.33;;;8.65;;
46675;SDS011;32412;51.478;5.694;2024-02-21T07:07:25;22.52;;;8.45;;
46675;SDS011;32412;51.478;5.694;2024-02-21T07:09:54;25.50;;;8.70;;
46675;SDS011;32412;51.478;5.694;2024-02-21T07:12:23;18.85;;;8.18;;
46675;SDS011;32412;51.478;5.694;2024-02-21T07:14:49;19.13;;;8.30;;
46675;SDS011;32412;51.478;5.694;2024-02-21T07:17:14;17.55;;;8.65;;
46675;SDS011;32412;51.478;5.694;2024-02-21T07:19:40;22.58;;;9.20;;
46675;SDS011;32412;51.478;5.694;2024-02-21T07:22:08;18.10;;;8.25;;
46675;SDS011;32412;51.478;5.694;2024-02-21T07:24:34;21.10;;;8.77;;
46675;SDS011;32412;51.478;5.694;2024-02-21T07:27:00;21.95;;;8.35;;
46675;SDS011;32412;51.478;5.694;2024-02-21T07:29:29;21.70;;;8.18;;
46675;SDS011;32412;51.478;5.694;2024-02-21T07:31:55;17.23;;;7.95;;
46675;SDS011;32412;51.478;5.694;2024-02-21T07:34:21;23.92;;;8.77;;
46675;SDS011;32412;51.478;5.694;2024-02-21T07:36:47;14.32;;;7.47;;
46675;SDS011;32412;51.478;5.694;2024-02-21T07:39:12;17.30;;;8.57;;
46675;SDS011;32412;51.478;5.694;2024-02-21T07:41:38;19.02;;;7.43;;
46675;SDS011;32412;51.478;5.694;2024-02-21T07:44:05;16.27;;;7.53;;
46675;SDS011;32412;51.478;5.694;2024-02-21T07:46:30;16.35;;;7.43;;
46675;SDS011;32412;51.478;5.694;2024-02-21T07:48:56;17.58;;;6.85;;
46675;SDS011;32412;51.478;5.694;2024-02-21T07:51:22;17.75;;;6.70;;
46675;SDS011;32412;51.478;5.694;2024-02-21T07:53:47;16.90;;;7.45;;
46675;SDS011;32412;51.478;5.694;2024-02-21T07:56:13;14.32;;;6.45;;
46675;SDS011;32412;51.478;5.694;2024-02-21T07:58:40;14.77;;;6.57;;
46675;SDS011;32412;51.478;5.694;2024-02-21T08:01:06;13.15;;;6.47;;
46675;SDS011;32412;51.478;5.694;2024-02-21T08:03:32;16.75;;;6.97;;
46675;SDS011;32412;51.478;5.694;2024-02-21T08:05:58;15.82;;;6.82;;
46675;SDS011;32412;51.478;5.694;2024-02-21T08:08:24;10.50;;;6.03;;
46675;SDS011;32412;51.478;5.694;2024-02-21T08:10:50;11.82;;;6.13;;
46675;SDS011;32412;51.478;5.694;2024-02-21T08:13:16;12.38;;;6.10;;
46675;SDS011;32412;51.478;5.694;2024-02-21T08:15:41;15.77;;;6.00;;
46675;SDS011;32412;51.478;5.694;2024-02-21T08:18:07;9.48;;;6.38;;
46675;SDS011;32412;51.478;5.694;2024-02-21T08:20:33;10.70;;;5.85;;
46675;SDS011;32412;51.478;5.694;2024-02-21T08:22:59;10.10;;;6.03;;
46675;SDS011;32412;51.478;5.694;2024-02-21T08:25:25;12.70;;;6.65;;
46675;SDS011;32412;51.478;5.694;2024-02-21T08:27:50;12.23;;;6.50;;
46675;SDS011;32412;51.478;5.694;2024-02-21T08:30:17;12.07;;;5.55;;
46675;SDS011;32412;51.478;5.694;2024-02-21T08:32:43;11.73;;;6.15;;
46675;SDS011;32412;51.478;5.694;2024-02-21T08:35:08;13.55;;;5.70;;
46675;SDS011;32412;51.478;5.694;2024-02-21T08:37:34;10.02;;;6.32;;
46675;SDS011;32412;51.478;5.694;2024-02-21T08:40:00;12.07;;;5.82;;
46675;SDS011;32412;51.478;5.694;2024-02-21T08:42:33;8.48;;;5.35;;
46675;SDS011;32412;51.478;5.694;2024-02-21T08:45:02;13.68;;;5.95;;
46675;SDS011;32412;51.478;5.694;2024-02-21T08:47:28;12.70;;;5.75;;
46675;SDS011;32412;51.478;5.694;2024-02-21T08:49:54;16.48;;;6.13;;
46675;SDS011;32412;51.478;5.694;2024-02-21T08:52:19;10.00;;;5.53;;
46675;SDS011;32412;51.478;5.694;2024-02-21T08:54:45;12.70;;;5.55;;
46675;SDS011;32412;51.478;5.694;2024-02-21T08:57:11;10.30;;;5.45;;
46675;SDS011;32412;51.478;5.694;2024-02-21T08:59:38;9.77;;;4.90;;
46675;SDS011;32412;51.478;5.694;2024-02-21T09:02:04;10.98;;;4.68;;
46675;SDS011;32412;51.478;5.694;2024-02-21T09:04:32;8.43;;;5.00;;
46675;SDS011;32412;51.478;5.694;2024-02-21T09:06:58;9.02;;;4.68;;
46675;SDS011;32412;51.478;5.694;2024-02-21T09:09:24;9.55;;;5.15;;
46675;SDS011;32412;51.478;5.694;2024-02-21T09:11:50;12.13;;;5.38;;
46675;SDS011;32412;51.478;5.694;2024-02-21T09:14:16;11.90;;;5.43;;
46675;SDS011;32412;51.478;5.694;2024-02-21T09:16:42;10.70;;;5.65;;
46675;SDS011;32412;51.478;5.694;2024-02-21T09:19:08;11.52;;;5.50;;
46675;SDS011;32412;51.478;5.694;2024-02-21T09:21:36;12.98;;;6.00;;
46675;SDS011;32412;51.478;5.694;2024-02-21T09:24:02;12.93;;;6.13;;
46675;SDS011;32412;51.478;5.694;2024-02-21T09:26:28;12.57;;;6.60;;
46675;SDS011;32412;51.478;5.694;2024-02-21T09:28:54;11.90;;;6.07;;
46675;SDS011;32412;51.478;5.694;2024-02-21T09:31:19;11.98;;;6.85;;
46675;SDS011;32412;51.478;5.694;2024-02-21T09:33:45;11.70;;;6.45;;
46675;SDS011;32412;51.478;5.694;2024-02-21T09:36:10;13.35;;;6.85;;
46675;SDS011;32412;51.478;5.694;2024-02-21T09:38:36;15.50;;;6.38;;
46675;SDS011;32412;51.478;5.694;2024-02-21T09:41:11;12.00;;;6.72;;
46675;SDS011;32412;51.478;5.694;2024-02-21T09:43:43;14.38;;;7.07;;
46675;SDS011;32412;51.478;5.694;2024-02-21T09:46:16;12.90;;;7.03;;
46675;SDS011;32412;51.478;5.694;2024-02-21T09:48:54;14.10;;;6.47;;
46675;SDS011;32412;51.478;5.694;2024-02-21T09:51:39;12.60;;;6.47;;
46675;SDS011;32412;51.478;5.694;2024-02-21T09:54:07;14.80;;;6.38;;
46675;SDS011;32412;51.478;5.694;2024-02-21T09:56:33;11.75;;;5.75;;
46675;SDS011;32412;51.478;5.694;2024-02-21T09:59:01;13.10;;;6.10;;
46675;SDS011;32412;51.478;5.694;2024-02-21T10:01:30;13.05;;;6.15;;
46675;SDS011;32412;51.478;5.694;2024-02-21T10:03:57;10.55;;;5.28;;
46675;SDS011;32412;51.478;5.694;2024-02-21T10:06:22;12.88;;;5.45;;
46675;SDS011;32412;51.478;5.694;2024-02-21T10:08:55;15.25;;;5.70;;
46675;SDS011;32412;51.478;5.694;2024-02-21T10:11:24;12.00;;;5.60;;
46675;SDS011;32412;51.478;5.694;2024-02-21T10:13:50;10.30;;;4.93;;
46675;SDS011;32412;51.478;5.694;2024-02-21T10:16:16;11.40;;;4.75;;
46675;SDS011;32412;51.478;5.694;2024-02-21T10:18:42;11.45;;;5.18;;
46675;SDS011;32412;51.478;5.694;2024-02-21T10:21:08;11.05;;;4.70;;
46675;SDS011;32412;51.478;5.694;2024-02-21T10:26:13;11.68;;;4.40;;
46675;SDS011;32412;51.478;5.694;2024-02-21T10:28:39;10.88;;;4.50;;
46675;SDS011;32412;51.478;5.694;2024-02-21T10:31:07;11.38;;;4.68;;
46675;SDS011;32412;51.478;5.694;2024-02-21T10:33:35;16.15;;;5.32;;
46675;SDS011;32412;51.478;5.694;2024-02-21T10:36:09;8.52;;;4.20;;
46675;SDS011;32412;51.478;5.694;2024-02-21T10:38:39;14.13;;;4.38;;
46675;SDS011;32412;51.478;5.694;2024-02-21T10:41:05;8.18;;;4.57;;
46675;SDS011;32412;51.478;5.694;2024-02-21T10:43:35;10.23;;;3.90;;
46675;SDS011;32412;51.478;5.694;2024-02-21T10:46:06;11.18;;;4.07;;
46675;SDS011;32412;51.478;5.694;2024-02-21T10:48:43;7.47;;;3.92;;
46675;SDS011;32412;51.478;5.694;2024-02-21T10:51:19;9.88;;;3.90;;
46675;SDS011;32412;51.478;5.694;2024-02-21T10:57:08;8.85;;;3.78;;
46675;SDS011;32412;51.478;5.694;2024-02-21T10:59:37;9.88;;;3.90;;
46675;SDS011;32412;51.478;5.694;2024-02-21T11:02:05;10.48;;;3.90;;
46675;SDS011;32412;51.478;5.694;2024-02-21T11:04:31;10.95;;;4.32;;
46675;SDS011;32412;51.478;5.694;2024-02-21T11:07:01;9.02;;;4.10;;
46675;SDS011;32412;51.478;5.694;2024-02-21T11:09:31;10.32;;;3.92;;
46675;SDS011;32412;51.478;5.694;2024-02-21T11:11:58;8.88;;;3.78;;
46675;SDS011;32412;51.478;5.694;2024-02-21T11:14:29;8.25;;;3.85;;
46675;SDS011;32412;51.478;5.694;2024-02-21T11:17:00;8.57;;;3.35;;
46675;SDS011;32412;51.478;5.694;2024-02-21T11:19:27;13.20;;;4.18;;
46675;SDS011;32412;51.478;5.694;2024-02-21T11:21:54;12.05;;;3.95;;
46675;SDS011;32412;51.478;5.694;2024-02-21T11:24:26;7.20;;;4.10;;
46675;SDS011;32412;51.478;5.694;2024-02-21T11:26:56;10.20;;;3.90;;
46675;SDS011;32412;51.478;5.694;2024-02-21T11:29:32;11.02;;;3.90;;
46675;SDS011;32412;51.478;5.694;2024-02-21T11:31:58;10.02;;;3.75;;
46675;SDS011;32412;51.478;5.694;2024-02-21T11:34:27;10.00;;;3.80;;
46675;SDS011;32412;51.478;5.694;2024-02-21T11:36:52;9.23;;;3.85;;
46675;SDS011;32412;51.478;5.694;2024-02-21T11:39:22;14.32;;;4.53;;
46675;SDS011;32412;51.478;5.694;2024-02-21T11:42:02;7.68;;;3.97;;
46675;SDS011;32412;51.478;5.694;2024-02-21T11:44:29;8.30;;;3.85;;
46675;SDS011;32412;51.478;5.694;2024-02-21T11:46:55;9.38;;;3.75;;
46675;SDS011;32412;51.478;5.694;2024-02-21T11:49:21;10.90;;;3.53;;
46675;SDS011;32412;51.478;5.694;2024-02-21T11:51:46;8.30;;;3.33;;
46675;SDS011;32412;51.478;5.694;2024-02-21T11:54:13;7.18;;;3.35;;
46675;SDS011;32412;51.478;5.694;2024-02-21T11:56:41;12.80;;;4.20;;
46675;SDS011;32412;51.478;5.694;2024-02-21T11:59:08;6.95;;;3.60;;
46675;SDS011;32412;51.478;5.694;2024-02-21T12:01:34;8.30;;;3.45;;
46675;SDS011;32412;51.478;5.694;2024-02-21T12:03:59;10.15;;;3.17;;
46675;SDS011;32412;51.478;5.694;2024-02-21T12:06:25;6.47;;;3.45;;
46675;SDS011;32412;51.478;5.694;2024-02-21T12:08:51;8.98;;;3.42;;
46675;SDS011;32412;51.478;5.694;2024-02-21T12:11:23;10.50;;;3.30;;
46675;SDS011;32412;51.478;5.694;2024-02-21T12:13:59;12.27;;;3.60;;
46675;SDS011;32412;51.478;5.694;2024-02-21T12:16:26;7.60;;;3.42;;
46675;SDS011;32412;51.478;5.694;2024-02-21T12:18:54;8.65;;;3.80;;
46675;SDS011;32412;51.478;5.694;2024-02-21T12:21:23;9.48;;;3.45;;
46675;SDS011;32412;51.478;5.694;2024-02-21T12:23:55;11.73;;;3.67;;
46675;SDS011;32412;51.478;5.694;2024-02-21T12:29:28;11.18;;;4.28;;
46675;SDS011;32412;51.478;5.694;2024-02-21T12:31:55;8.60;;;3.67;;
46675;SDS011;32412;51.478;5.694;2024-02-21T12:34:21;9.95;;;4.10;;
46675;SDS011;32412;51.478;5.694;2024-02-21T12:36:49;11.80;;;4.10;;
46675;SDS011;32412;51.478;5.694;2024-02-21T12:39:16;10.70;;;3.65;;
46675;SDS011;32412;51.478;5.694;2024-02-21T12:41:42;12.45;;;3.72;;
46675;SDS011;32412;51.478;5.694;2024-02-21T12:44:09;9.73;;;3.22;;
46675;SDS011;32412;51.478;5.694;2024-02-21T12:46:36;13.55;;;4.15;;
46675;SDS011;32412;51.478;5.694;2024-02-21T12:49:03;7.30;;;3.38;;
46675;SDS011;32412;51.478;5.694;2024-02-21T12:51:29;11.20;;;3.67;;
46675;SDS011;32412;51.478;5.694;2024-02-21T12:53:55;9.88;;;4.00;;
46675;SDS011;32412;51.478;5.694;2024-02-21T12:56:21;9.07;;;3.83;;
46675;SDS011;32412;51.478;5.694;2024-02-21T12:58:47;8.82;;;3.50;;
46675;SDS011;32412;51.478;5.694;2024-02-21T13:01:13;11.27;;;3.97;;
46675;SDS011;32412;51.478;5.694;2024-02-21T13:03:38;9.25;;;3.67;;
46675;SDS011;32412;51.478;5.694;2024-02-21T13:06:04;10.15;;;3.88;;
46675;SDS011;32412;51.478;5.694;2024-02-21T13:08:33;6.88;;;3.17;;
46675;SDS011;32412;51.478;5.694;2024-02-21T13:11:00;8.10;;;3.20;;
46675;SDS011;32412;51.478;5.694;2024-02-21T13:13:26;11.27;;;3.90;;
46675;SDS011;32412;51.478;5.694;2024-02-21T13:15:52;8.52;;;3.70;;
46675;SDS011;32412;51.478;5.694;2024-02-21T13:18:17;6.18;;;3.17;;
46675;SDS011;32412;51.478;5.694;2024-02-21T13:20:43;6.82;;;3.30;;
46675;SDS011;32412;51.478;5.694;2024-02-21T13:23:08;6.63;;;3.30;;
46675;SDS011;32412;51.478;5.694;2024-02-21T13:25:34;9.57;;;3.58;;
46675;SDS011;32412;51.478;5.694;2024-02-21T13:28:00;6.68;;;2.70;;
46675;SDS011;32412;51.478;5.694;2024-02-21T13:30:26;6.03;;;2.60;;
46675;SDS011;32412;51.478;5.694;2024-02-21T13:32:52;12.25;;;2.83;;
46675;SDS011;32412;51.478;5.694;2024-02-21T13:35:19;9.60;;;3.08;;
46675;SDS011;32412;51.478;5.694;2024-02-21T13:37:45;9.45;;;2.78;;
46675;SDS011;32412;51.478;5.694;2024-02-21T13:40:11;7.57;;;2.40;;
46675;SDS011;32412;51.478;5.694;2024-02-21T13:42:40;3.63;;;2.30;;
46675;SDS011;32412;51.478;5.694;2024-02-21T13:45:06;6.88;;;2.33;;
46675;SDS011;32412;51.478;5.694;2024-02-21T13:47:35;8.38;;;2.40;;
46675;SDS011;32412;51.478;5.694;2024-02-21T13:50:04;16.33;;;6.22;;
46675;SDS011;32412;51.478;5.694;2024-02-21T13:52:33;15.27;;;6.35;;
46675;SDS011;32412;51.478;5.694;2024-02-21T13:54:59;8.43;;;2.88;;
46675;SDS011;32412;51.478;5.694;2024-02-21T13:57:25;8.02;;;2.78;;
46675;SDS011;32412;51.478;5.694;2024-02-21T13:59:50;9.02;;;3.63;;
46675;SDS011;32412;51.478;5.694;2024-02-21T14:02:16;6.32;;;3.05;;
46675;SDS011;32412;51.478;5.694;2024-02-21T14:04:42;6.63;;;4.00;;
46675;SDS011;32412;51.478;5.694;2024-02-21T14:07:07;4.63;;;2.53;;
46675;SDS011;32412;51.478;5.694;2024-02-21T14:09:33;8.70;;;3.05;;
46675;SDS011;32412;51.478;5.694;2024-02-21T14:11:59;9.48;;;2.67;;
46675;SDS011;32412;51.478;5.694;2024-02-21T14:14:25;7.55;;;3.00;;
46675;SDS011;32412;51.478;5.694;2024-02-21T14:16:51;7.90;;;2.97;;
46675;SDS011;32412;51.478;5.694;2024-02-21T14:19:16;8.20;;;4.43;;
46675;SDS011;32412;51.478;5.694;2024-02-21T14:21:43;6.30;;;2.60;;
46675;SDS011;32412;51.478;5.694;2024-02-21T14:24:09;12.23;;;2.72;;
46675;SDS011;32412;51.478;5.694;2024-02-21T14:26:36;5.60;;;2.88;;
46675;SDS011;32412;51.478;5.694;2024-02-21T14:29:03;7.32;;;2.55;;
46675;SDS011;32412;51.478;5.694;2024-02-21T14:31:30;8.18;;;3.65;;
46675;SDS011;32412;51.478;5.694;2024-02-21T14:33:57;5.70;;;2.80;;
46675;SDS011;32412;51.478;5.694;2024-02-21T14:36:23;9.98;;;2.97;;
46675;SDS011;32412;51.478;5.694;2024-02-21T14:38:49;18.13;;;8.27;;
46675;SDS011;32412;51.478;5.694;2024-02-21T14:41:16;15.50;;;5.72;;
46675;SDS011;32412;51.478;5.694;2024-02-21T14:43:42;4.22;;;2.00;;